sensor_id;sensor_type;location;lat;lon;timestamp;temperature;humidity
21551;DHT22;10936;49.836;7.078;2022-09-17T00:00:57;20.30;99.40
21551;DHT22;10936;49.836;7.078;2022-09-17T00:03:24;20.30;99.40
21551;DHT22;10936;49.836;7.078;2022-09-17T00:06:01;20.30;99.40
21551;DHT22;10936;49.836;7.078;2022-09-17T00:08:28;20.30;99.40
21551;DHT22;10936;49.836;7.078;2022-09-17T00:10:54;20.30;99.40
21551;DHT22;10936;49.836;7.078;2022-09-17T00:13:20;20.30;99.40
21551;DHT22;10936;49.836;7.078;2022-09-17T00:15:45;20.30;99.40
21551;DHT22;10936;49.836;7.078;2022-09-17T00:18:12;20.30;99.40
21551;DHT22;10936;49.836;7.078;2022-09-17T00:20:43;20.30;99.40
21551;DHT22;10936;49.836;7.078;2022-09-17T00:23:09;20.30;99.40
21551;DHT22;10936;49.836;7.078;2022-09-17T00:25:44;20.30;99.40
21551;DHT22;10936;49.836;7.078;2022-09-17T00:28:11;20.30;99.40
21551;DHT22;10936;49.836;7.078;2022-09-17T00:30:40;20.30;99.40
21551;DHT22;10936;49.836;7.078;2022-09-17T00:33:06;20.30;99.40
21551;DHT22;10936;49.836;7.078;2022-09-17T00:35:32;20.30;99.40
21551;DHT22;10936;49.836;7.078;2022-09-17T00:37:58;20.30;99.40
21551;DHT22;10936;49.836;7.078;2022-09-17T00:40:23;20.30;99.40
21551;DHT22;10936;49.836;7.078;2022-09-17T00:42:49;20.30;99.40
21551;DHT22;10936;49.836;7.078;2022-09-17T00:45:18;20.30;99.40
21551;DHT22;10936;49.836;7.078;2022-09-17T00:48:01;20.30;99.40
21551;DHT22;10936;49.836;7.078;2022-09-17T00:50:37;20.30;99.40
21551;DHT22;10936;49.836;7.078;2022-09-17T00:53:13;20.30;99.80
21551;DHT22;10936;49.836;7.078;2022-09-17T00:55:46;20.30;99.40
21551;DHT22;10936;49.836;7.078;2022-09-17T00:58:16;20.30;99.40
21551;DHT22;10936;49.836;7.078;2022-09-17T01:00:43;20.30;99.40
21551;DHT22;10936;49.836;7.078;2022-09-17T01:03:09;20.30;99.40
21551;DHT22;10936;49.836;7.078;2022-09-17T01:16:45;20.30;99.40
21551;DHT22;10936;49.836;7.078;2022-09-17T01:22:21;20.30;99.40
21551;DHT22;10936;49.836;7.078;2022-09-17T01:33:17;20.30;99.40
21551;DHT22;10936;49.836;7.078;2022-09-17T01:44:39;20.30;99.40
21551;DHT22;10936;49.836;7.078;2022-09-17T01:47:17;20.30;99.40
21551;DHT22;10936;49.836;7.078;2022-09-17T01:49:44;20.30;99.40
21551;DHT22;10936;49.836;7.078;2022-09-17T01:52:12;20.30;99.40
21551;DHT22;10936;49.836;7.078;2022-09-17T01:54:43;20.30;99.40
21551;DHT22;10936;49.836;7.078;2022-09-17T01:57:25;20.20;99.40
21551;DHT22;10936;49.836;7.078;2022-09-17T01:59:57;20.30;99.40
21551;DHT22;10936;49.836;7.078;2022-09-17T02:02:33;20.30;99.40
21551;DHT22;10936;49.836;7.078;2022-09-17T02:05:04;20.30;99.40
21551;DHT22;10936;49.836;7.078;2022-09-17T02:07:32;20.30;99.40
21551;DHT22;10936;49.836;7.078;2022-09-17T02:10:09;20.30;99.40
21551;DHT22;10936;49.836;7.078;2022-09-17T02:12:42;20.30;99.40
21551;DHT22;10936;49.836;7.078;2022-09-17T02:15:18;20.30;99.40
21551;DHT22;10936;49.836;7.078;2022-09-17T02:17:49;20.30;99.40
21551;DHT22;10936;49.836;7.078;2022-09-17T02:20:17;20.30;99.40
21551;DHT22;10936;49.836;7.078;2022-09-17T02:22:49;20.30;99.40
21551;DHT22;10936;49.836;7.078;2022-09-17T02:25:23;20.30;99.30
21551;DHT22;10936;49.836;7.078;2022-09-17T02:28:01;20.30;99.30
21551;DHT22;10936;49.836;7.078;2022-09-17T02:30:28;20.20;99.30
21551;DHT22;10936;49.836;7.078;2022-09-17T02:32:54;20.30;99.40
21551;DHT22;10936;49.836;7.078;2022-09-17T02:35:20;20.30;99.40
21551;DHT22;10936;49.836;7.078;2022-09-17T02:37:46;20.30;99.30
21551;DHT22;10936;49.836;7.078;2022-09-17T02:40:15;20.30;99.30
21551;DHT22;10936;49.836;7.078;2022-09-17T02:54:06;20.30;99.40
21551;DHT22;10936;49.836;7.078;2022-09-17T02:57:06;20.20;99.30
21551;DHT22;10936;49.836;7.078;2022-09-17T02:59:58;20.30;99.40
21551;DHT22;10936;49.836;7.078;2022-09-17T03:02:52;20.20;99.30
21551;DHT22;10936;49.836;7.078;2022-09-17T03:05:22;20.20;99.30
21551;DHT22;10936;49.836;7.078;2022-09-17T03:07:48;20.20;99.30
21551;DHT22;10936;49.836;7.078;2022-09-17T03:10:14;20.20;99.30
21551;DHT22;10936;49.836;7.078;2022-09-17T03:12:40;20.20;99.30
21551;DHT22;10936;49.836;7.078;2022-09-17T03:15:06;20.20;99.30
21551;DHT22;10936;49.836;7.078;2022-09-17T03:17:32;20.20;99.30
21551;DHT22;10936;49.836;7.078;2022-09-17T03:19:58;20.20;99.30
21551;DHT22;10936;49.836;7.078;2022-09-17T03:22:24;20.20;99.30
21551;DHT22;10936;49.836;7.078;2022-09-17T03:24:49;20.30;99.30
21551;DHT22;10936;49.836;7.078;2022-09-17T03:27:15;20.30;99.30
21551;DHT22;10936;49.836;7.078;2022-09-17T03:29:41;20.20;99.30
21551;DHT22;10936;49.836;7.078;2022-09-17T03:32:07;20.20;99.30
21551;DHT22;10936;49.836;7.078;2022-09-17T03:34:33;20.20;99.30
21551;DHT22;10936;49.836;7.078;2022-09-17T03:36:58;20.30;99.30
21551;DHT22;10936;49.836;7.078;2022-09-17T03:39:24;20.20;99.30
21551;DHT22;10936;49.836;7.078;2022-09-17T03:41:49;20.20;99.30
21551;DHT22;10936;49.836;7.078;2022-09-17T03:44:16;20.20;99.30
21551;DHT22;10936;49.836;7.078;2022-09-17T03:46:43;20.30;99.30
21551;DHT22;10936;49.836;7.078;2022-09-17T03:49:09;20.20;99.30
21551;DHT22;10936;49.836;7.078;2022-09-17T03:51:35;20.20;99.30
21551;DHT22;10936;49.836;7.078;2022-09-17T03:54:00;20.20;99.30
21551;DHT22;10936;49.836;7.078;2022-09-17T03:56:27;20.20;99.30
21551;DHT22;10936;49.836;7.078;2022-09-17T03:58:57;20.20;99.30
21551;DHT22;10936;49.836;7.078;2022-09-17T04:01:23;20.20;99.30
21551;DHT22;10936;49.836;7.078;2022-09-17T04:03:48;20.20;99.30
21551;DHT22;10936;49.836;7.078;2022-09-17T04:06:14;20.20;99.30
21551;DHT22;10936;49.836;7.078;2022-09-17T04:08:40;20.20;99.30
21551;DHT22;10936;49.836;7.078;2022-09-17T04:11:06;20.20;99.30
21551;DHT22;10936;49.836;7.078;2022-09-17T04:13:32;20.20;99.30
21551;DHT22;10936;49.836;7.078;2022-09-17T04:15:57;20.20;99.30
21551;DHT22;10936;49.836;7.078;2022-09-17T04:18:23;20.20;99.30
21551;DHT22;10936;49.836;7.078;2022-09-17T04:20:49;20.20;99.30
21551;DHT22;10936;49.836;7.078;2022-09-17T04:23:15;20.20;99.30
21551;DHT22;10936;49.836;7.078;2022-09-17T04:25:40;20.20;99.30
21551;DHT22;10936;49.836;7.078;2022-09-17T04:28:06;20.20;99.30
21551;DHT22;10936;49.836;7.078;2022-09-17T04:30:32;20.20;99.30
21551;DHT22;10936;49.836;7.078;2022-09-17T04:32:57;20.20;99.30
21551;DHT22;10936;49.836;7.078;2022-09-17T04:35:23;20.20;99.30
21551;DHT22;10936;49.836;7.078;2022-09-17T04:37:56;20.20;99.30
21551;DHT22;10936;49.836;7.078;2022-09-17T04:40:23;20.20;99.30
21551;DHT22;10936;49.836;7.078;2022-09-17T04:42:53;20.20;99.30
21551;DHT22;10936;49.836;7.078;2022-09-17T04:45:20;20.20;99.30
21551;DHT22;10936;49.836;7.078;2022-09-17T04:47:46;20.20;99.30
21551;DHT22;10936;49.836;7.078;2022-09-17T04:50:12;20.20;99.30
21551;DHT22;10936;49.836;7.078;2022-09-17T04:52:41;20.20;99.30
21551;DHT22;10936;49.836;7.078;2022-09-17T04:55:08;20.20;99.30
21551;DHT22;10936;49.836;7.078;2022-09-17T04:57:34;20.20;99.30
21551;DHT22;10936;49.836;7.078;2022-09-17T05:00:00;20.20;99.30
21551;DHT22;10936;49.836;7.078;2022-09-17T05:02:25;20.20;99.30
21551;DHT22;10936;49.836;7.078;2022-09-17T05:04:51;20.20;99.30
21551;DHT22;10936;49.836;7.078;2022-09-17T05:07:17;20.20;99.30
21551;DHT22;10936;49.836;7.078;2022-09-17T05:09:42;20.20;99.30
21551;DHT22;10936;49.836;7.078;2022-09-17T05:12:08;20.20;99.30
21551;DHT22;10936;49.836;7.078;2022-09-17T05:14:33;20.20;99.30
21551;DHT22;10936;49.836;7.078;2022-09-17T05:16:59;20.20;99.30
21551;DHT22;10936;49.836;7.078;2022-09-17T05:19:25;20.20;99.30
21551;DHT22;10936;49.836;7.078;2022-09-17T05:21:50;20.20;99.30
21551;DHT22;10936;49.836;7.078;2022-09-17T05:24:16;20.20;99.40
21551;DHT22;10936;49.836;7.078;2022-09-17T05:26:41;20.20;99.30
21551;DHT22;10936;49.836;7.078;2022-09-17T05:29:07;20.20;99.30
21551;DHT22;10936;49.836;7.078;2022-09-17T05:31:33;20.20;99.30
21551;DHT22;10936;49.836;7.078;2022-09-17T05:33:58;20.20;99.30
21551;DHT22;10936;49.836;7.078;2022-09-17T05:36:24;20.20;99.30
21551;DHT22;10936;49.836;7.078;2022-09-17T05:38:50;20.20;99.30
21551;DHT22;10936;49.836;7.078;2022-09-17T05:41:15;20.20;99.30
21551;DHT22;10936;49.836;7.078;2022-09-17T05:43:42;20.20;99.30
21551;DHT22;10936;49.836;7.078;2022-09-17T05:46:08;20.20;99.30
21551;DHT22;10936;49.836;7.078;2022-09-17T05:48:35;20.20;99.30
21551;DHT22;10936;49.836;7.078;2022-09-17T05:51:01;20.20;99.30
21551;DHT22;10936;49.836;7.078;2022-09-17T05:53:26;20.20;99.30
21551;DHT22;10936;49.836;7.078;2022-09-17T05:55:56;20.20;99.30
21551;DHT22;10936;49.836;7.078;2022-09-17T05:58:22;20.20;99.30
21551;DHT22;10936;49.836;7.078;2022-09-17T06:00:48;20.20;99.30
21551;DHT22;10936;49.836;7.078;2022-09-17T06:03:16;20.20;99.30
21551;DHT22;10936;49.836;7.078;2022-09-17T06:05:42;20.20;99.30
21551;DHT22;10936;49.836;7.078;2022-09-17T06:08:08;20.20;99.30
21551;DHT22;10936;49.836;7.078;2022-09-17T06:10:37;20.20;99.30
21551;DHT22;10936;49.836;7.078;2022-09-17T06:13:03;20.20;99.30
21551;DHT22;10936;49.836;7.078;2022-09-17T06:15:29;20.20;99.30
21551;DHT22;10936;49.836;7.078;2022-09-17T06:17:55;20.20;99.30
21551;DHT22;10936;49.836;7.078;2022-09-17T06:20:21;20.20;99.30
21551;DHT22;10936;49.836;7.078;2022-09-17T06:22:47;20.20;99.30
21551;DHT22;10936;49.836;7.078;2022-09-17T06:25:12;20.20;99.30
21551;DHT22;10936;49.836;7.078;2022-09-17T06:27:38;20.20;99.30
21551;DHT22;10936;49.836;7.078;2022-09-17T06:30:04;20.20;99.30
21551;DHT22;10936;49.836;7.078;2022-09-17T06:32:31;20.20;99.30
21551;DHT22;10936;49.836;7.078;2022-09-17T06:34:57;20.20;99.30
21551;DHT22;10936;49.836;7.078;2022-09-17T06:37:27;20.20;99.30
21551;DHT22;10936;49.836;7.078;2022-09-17T06:39:53;20.20;99.30
21551;DHT22;10936;49.836;7.078;2022-09-17T06:42:19;20.20;99.30
21551;DHT22;10936;49.836;7.078;2022-09-17T06:44:45;20.20;99.30
21551;DHT22;10936;49.836;7.078;2022-09-17T06:47:10;20.20;99.30
21551;DHT22;10936;49.836;7.078;2022-09-17T06:49:36;20.20;99.30
21551;DHT22;10936;49.836;7.078;2022-09-17T06:52:02;20.20;99.30
21551;DHT22;10936;49.836;7.078;2022-09-17T06:54:28;20.20;99.30
21551;DHT22;10936;49.836;7.078;2022-09-17T06:56:54;20.20;99.30
21551;DHT22;10936;49.836;7.078;2022-09-17T06:59:19;20.20;99.30
21551;DHT22;10936;49.836;7.078;2022-09-17T07:01:46;20.20;99.40
21551;DHT22;10936;49.836;7.078;2022-09-17T07:04:12;20.20;99.00
21551;DHT22;10936;49.836;7.078;2022-09-17T07:06:38;20.10;98.70
21551;DHT22;10936;49.836;7.078;2022-09-17T07:09:04;20.10;98.40
21551;DHT22;10936;49.836;7.078;2022-09-17T07:11:32;20.00;98.30
21551;DHT22;10936;49.836;7.078;2022-09-17T07:13:58;19.80;98.10
21551;DHT22;10936;49.836;7.078;2022-09-17T07:16:23;19.70;98.60
21551;DHT22;10936;49.836;7.078;2022-09-17T07:18:51;19.70;98.90
21551;DHT22;10936;49.836;7.078;2022-09-17T07:21:17;19.70;99.00
21551;DHT22;10936;49.836;7.078;2022-09-17T07:23:43;19.70;99.10
21551;DHT22;10936;49.836;7.078;2022-09-17T07:26:14;19.70;99.10
21551;DHT22;10936;49.836;7.078;2022-09-17T07:28:41;19.80;98.90
21551;DHT22;10936;49.836;7.078;2022-09-17T07:31:08;19.80;98.90
21551;DHT22;10936;49.836;7.078;2022-09-17T07:33:35;19.90;98.70
21551;DHT22;10936;49.836;7.078;2022-09-17T07:36:04;19.90;98.60
21551;DHT22;10936;49.836;7.078;2022-09-17T07:38:30;19.90;98.50
21551;DHT22;10936;49.836;7.078;2022-09-17T07:43:33;19.90;98.40
21551;DHT22;10936;49.836;7.078;2022-09-17T07:46:01;19.90;98.30
21551;DHT22;10936;49.836;7.078;2022-09-17T07:48:28;20.00;98.40
21551;DHT22;10936;49.836;7.078;2022-09-17T07:50:54;19.90;98.30
21551;DHT22;10936;49.836;7.078;2022-09-17T07:53:20;19.90;98.10
21551;DHT22;10936;49.836;7.078;2022-09-17T07:55:54;19.90;98.10
21551;DHT22;10936;49.836;7.078;2022-09-17T07:58:22;19.90;98.30
21551;DHT22;10936;49.836;7.078;2022-09-17T08:00:48;19.90;98.40
21551;DHT22;10936;49.836;7.078;2022-09-17T08:03:14;19.90;98.30
21551;DHT22;10936;49.836;7.078;2022-09-17T08:05:40;20.00;98.10
21551;DHT22;10936;49.836;7.078;2022-09-17T08:08:06;20.00;98.00
21551;DHT22;10936;49.836;7.078;2022-09-17T08:10:31;20.00;98.00
21551;DHT22;10936;49.836;7.078;2022-09-17T08:12:58;19.90;97.80
21551;DHT22;10936;49.836;7.078;2022-09-17T08:15:24;19.90;97.80
21551;DHT22;10936;49.836;7.078;2022-09-17T08:17:51;19.90;97.90
21551;DHT22;10936;49.836;7.078;2022-09-17T08:20:17;19.90;97.90
21551;DHT22;10936;49.836;7.078;2022-09-17T08:22:43;19.90;97.90
21551;DHT22;10936;49.836;7.078;2022-09-17T08:25:10;19.90;97.90
21551;DHT22;10936;49.836;7.078;2022-09-17T08:27:36;19.80;97.60
21551;DHT22;10936;49.836;7.078;2022-09-17T08:30:08;19.80;97.70
21551;DHT22;10936;49.836;7.078;2022-09-17T08:32:34;19.80;97.80
21551;DHT22;10936;49.836;7.078;2022-09-17T08:35:00;19.80;97.90
21551;DHT22;10936;49.836;7.078;2022-09-17T08:37:27;19.80;97.90
21551;DHT22;10936;49.836;7.078;2022-09-17T08:39:54;19.70;97.80
21551;DHT22;10936;49.836;7.078;2022-09-17T08:42:29;19.80;97.80
21551;DHT22;10936;49.836;7.078;2022-09-17T08:44:58;19.80;98.00
21551;DHT22;10936;49.836;7.078;2022-09-17T08:47:36;19.80;97.90
21551;DHT22;10936;49.836;7.078;2022-09-17T08:56:20;19.90;97.90
21551;DHT22;10936;49.836;7.078;2022-09-17T08:59:21;20.00;97.90
21551;DHT22;10936;49.836;7.078;2022-09-17T09:05:12;20.00;97.60
21551;DHT22;10936;49.836;7.078;2022-09-17T09:07:54;20.00;97.60
21551;DHT22;10936;49.836;7.078;2022-09-17T09:10:30;19.90;97.30
21551;DHT22;10936;49.836;7.078;2022-09-17T09:13:00;19.90;97.40
21551;DHT22;10936;49.836;7.078;2022-09-17T09:15:40;19.80;97.40
21551;DHT22;10936;49.836;7.078;2022-09-17T09:18:22;19.80;97.30
21551;DHT22;10936;49.836;7.078;2022-09-17T09:20:51;19.70;97.40
21551;DHT22;10936;49.836;7.078;2022-09-17T09:25:54;19.70;96.90
21551;DHT22;10936;49.836;7.078;2022-09-17T09:34:21;19.50;97.40
21551;DHT22;10936;49.836;7.078;2022-09-17T09:36:48;19.50;97.70
21551;DHT22;10936;49.836;7.078;2022-09-17T09:39:17;19.50;97.30
21551;DHT22;10936;49.836;7.078;2022-09-17T09:42:08;19.50;97.60
21551;DHT22;10936;49.836;7.078;2022-09-17T09:44:35;19.40;97.40
21551;DHT22;10936;49.836;7.078;2022-09-17T09:47:26;19.40;97.10
21551;DHT22;10936;49.836;7.078;2022-09-17T09:50:04;19.30;97.30
21551;DHT22;10936;49.836;7.078;2022-09-17T09:57:50;19.20;97.50
21551;DHT22;10936;49.836;7.078;2022-09-17T10:00:28;19.20;97.50
21551;DHT22;10936;49.836;7.078;2022-09-17T10:03:13;19.30;97.60
21551;DHT22;10936;49.836;7.078;2022-09-17T10:05:57;19.30;97.70
21551;DHT22;10936;49.836;7.078;2022-09-17T10:08:24;19.20;97.70
21551;DHT22;10936;49.836;7.078;2022-09-17T10:11:05;19.20;97.70
21551;DHT22;10936;49.836;7.078;2022-09-17T10:13:35;19.20;97.70
21551;DHT22;10936;49.836;7.078;2022-09-17T10:16:23;19.20;97.80
21551;DHT22;10936;49.836;7.078;2022-09-17T10:19:11;19.10;97.90
21551;DHT22;10936;49.836;7.078;2022-09-17T10:21:40;19.10;98.00
21551;DHT22;10936;49.836;7.078;2022-09-17T10:24:27;19.10;98.10
21551;DHT22;10936;49.836;7.078;2022-09-17T10:27:06;19.10;98.20
21551;DHT22;10936;49.836;7.078;2022-09-17T10:29:36;19.10;98.40
21551;DHT22;10936;49.836;7.078;2022-09-17T10:32:20;19.10;98.40
21551;DHT22;10936;49.836;7.078;2022-09-17T10:35:00;19.20;98.50
21551;DHT22;10936;49.836;7.078;2022-09-17T10:37:43;19.30;98.60
21551;DHT22;10936;49.836;7.078;2022-09-17T10:40:25;19.40;98.50
21551;DHT22;10936;49.836;7.078;2022-09-17T10:45:43;19.50;98.60
21551;DHT22;10936;49.836;7.078;2022-09-17T10:48:16;19.60;98.60
21551;DHT22;10936;49.836;7.078;2022-09-17T10:50:49;19.70;99.10
21551;DHT22;10936;49.836;7.078;2022-09-17T10:53:16;19.80;99.10
21551;DHT22;10936;49.836;7.078;2022-09-17T10:58:52;19.90;98.90
21551;DHT22;10936;49.836;7.078;2022-09-17T11:01:41;20.00;98.80
21551;DHT22;10936;49.836;7.078;2022-09-17T11:04:23;20.00;98.40
21551;DHT22;10936;49.836;7.078;2022-09-17T11:25:52;20.10;98.40
21551;DHT22;10936;49.836;7.078;2022-09-17T11:34:21;20.30;98.10
21551;DHT22;10936;49.836;7.078;2022-09-17T11:39:50;20.30;98.00
21551;DHT22;10936;49.836;7.078;2022-09-17T11:42:33;20.30;97.90
21551;DHT22;10936;49.836;7.078;2022-09-17T11:45:18;20.40;97.80
21551;DHT22;10936;49.836;7.078;2022-09-17T11:47:54;20.40;97.70
21551;DHT22;10936;49.836;7.078;2022-09-17T11:50:27;20.40;97.50
21551;DHT22;10936;49.836;7.078;2022-09-17T11:53:08;20.30;97.70
21551;DHT22;10936;49.836;7.078;2022-09-17T11:55:42;20.30;97.80
21551;DHT22;10936;49.836;7.078;2022-09-17T11:58:21;20.30;97.70
21551;DHT22;10936;49.836;7.078;2022-09-17T12:00:58;20.40;97.80
21551;DHT22;10936;49.836;7.078;2022-09-17T12:03:55;20.40;97.90
21551;DHT22;10936;49.836;7.078;2022-09-17T12:06:30;20.40;97.90
21551;DHT22;10936;49.836;7.078;2022-09-17T12:09:03;20.40;97.70
21551;DHT22;10936;49.836;7.078;2022-09-17T12:11:38;20.40;97.80
21551;DHT22;10936;49.836;7.078;2022-09-17T12:14:24;20.40;97.80
21551;DHT22;10936;49.836;7.078;2022-09-17T12:16:59;20.40;97.70
21551;DHT22;10936;49.836;7.078;2022-09-17T12:22:07;20.50;97.70
21551;DHT22;10936;49.836;7.078;2022-09-17T12:24:34;20.50;97.60
21551;DHT22;10936;49.836;7.078;2022-09-17T12:30:11;20.50;97.60
21551;DHT22;10936;49.836;7.078;2022-09-17T12:40:27;20.60;97.30
21551;DHT22;10936;49.836;7.078;2022-09-17T12:49:01;20.60;97.40
21551;DHT22;10936;49.836;7.078;2022-09-17T12:52:02;20.60;97.90
21551;DHT22;10936;49.836;7.078;2022-09-17T12:57:37;20.70;97.60
21551;DHT22;10936;49.836;7.078;2022-09-17T13:00:11;20.70;97.80
21551;DHT22;10936;49.836;7.078;2022-09-17T13:08:12;20.70;97.80
21551;DHT22;10936;49.836;7.078;2022-09-17T13:11:16;20.80;98.00
21551;DHT22;10936;49.836;7.078;2022-09-17T13:17:03;20.80;97.80
21551;DHT22;10936;49.836;7.078;2022-09-17T13:20:20;20.80;97.90
21551;DHT22;10936;49.836;7.078;2022-09-17T13:22:28;20.70;98.00
21551;DHT22;10936;49.836;7.078;2022-09-17T13:25:06;20.80;98.10
21551;DHT22;10936;49.836;7.078;2022-09-17T13:27:33;20.80;98.10
21551;DHT22;10936;49.836;7.078;2022-09-17T13:30:04;20.80;98.10
21551;DHT22;10936;49.836;7.078;2022-09-17T13:37:36;20.80;98.30
21551;DHT22;10936;49.836;7.078;2022-09-17T13:40:04;20.80;98.30
21551;DHT22;10936;49.836;7.078;2022-09-17T13:42:43;20.80;98.40
21551;DHT22;10936;49.836;7.078;2022-09-17T13:45:13;20.80;98.30
21551;DHT22;10936;49.836;7.078;2022-09-17T13:48:07;20.80;98.30
21551;DHT22;10936;49.836;7.078;2022-09-17T13:50:41;20.80;98.40
21551;DHT22;10936;49.836;7.078;2022-09-17T13:55:43;20.70;98.40
21551;DHT22;10936;49.836;7.078;2022-09-17T13:58:10;20.70;98.50
21551;DHT22;10936;49.836;7.078;2022-09-17T14:01:06;20.70;98.40
21551;DHT22;10936;49.836;7.078;2022-09-17T14:16:45;20.70;98.60
21551;DHT22;10936;49.836;7.078;2022-09-17T14:21:45;20.60;98.50
21551;DHT22;10936;49.836;7.078;2022-09-17T14:24:33;20.60;98.50
21551;DHT22;10936;49.836;7.078;2022-09-17T14:32:07;20.60;98.50
21551;DHT22;10936;49.836;7.078;2022-09-17T14:34:35;20.60;98.60
21551;DHT22;10936;49.836;7.078;2022-09-17T14:37:01;20.60;98.60
21551;DHT22;10936;49.836;7.078;2022-09-17T14:39:34;20.60;98.60
21551;DHT22;10936;49.836;7.078;2022-09-17T14:42:01;20.60;98.60
21551;DHT22;10936;49.836;7.078;2022-09-17T14:44:30;20.60;98.60
21551;DHT22;10936;49.836;7.078;2022-09-17T14:46:59;20.70;98.50
21551;DHT22;10936;49.836;7.078;2022-09-17T14:49:26;20.60;98.50
21551;DHT22;10936;49.836;7.078;2022-09-17T14:51:54;20.60;98.60
21551;DHT22;10936;49.836;7.078;2022-09-17T14:54:29;20.60;98.80
21551;DHT22;10936;49.836;7.078;2022-09-17T15:01:53;20.60;98.70
21551;DHT22;10936;49.836;7.078;2022-09-17T15:04:22;20.60;98.70
21551;DHT22;10936;49.836;7.078;2022-09-17T15:06:48;20.60;98.60
21551;DHT22;10936;49.836;7.078;2022-09-17T15:09:25;20.50;99.00
21551;DHT22;10936;49.836;7.078;2022-09-17T15:11:55;20.60;99.00
21551;DHT22;10936;49.836;7.078;2022-09-17T15:14:27;20.60;99.00
21551;DHT22;10936;49.836;7.078;2022-09-17T15:16:55;20.60;99.00
21551;DHT22;10936;49.836;7.078;2022-09-17T15:19:47;20.60;99.10
21551;DHT22;10936;49.836;7.078;2022-09-17T15:22:28;20.50;99.20
21551;DHT22;10936;49.836;7.078;2022-09-17T15:27:39;20.60;99.30
21551;DHT22;10936;49.836;7.078;2022-09-17T15:30:14;20.60;99.30
21551;DHT22;10936;49.836;7.078;2022-09-17T15:32:47;20.60;99.10
21551;DHT22;10936;49.836;7.078;2022-09-17T15:40:27;20.70;99.20
21551;DHT22;10936;49.836;7.078;2022-09-17T15:45:48;20.70;99.30
21551;DHT22;10936;49.836;7.078;2022-09-17T15:48:37;20.70;99.20
21551;DHT22;10936;49.836;7.078;2022-09-17T15:51:11;20.70;99.00
21551;DHT22;10936;49.836;7.078;2022-09-17T15:53:50;20.70;98.90
21551;DHT22;10936;49.836;7.078;2022-09-17T15:56:19;20.70;99.10
21551;DHT22;10936;49.836;7.078;2022-09-17T16:11:24;20.70;99.00
21551;DHT22;10936;49.836;7.078;2022-09-17T16:13:52;20.70;99.00
21551;DHT22;10936;49.836;7.078;2022-09-17T16:16:23;20.70;98.80
21551;DHT22;10936;49.836;7.078;2022-09-17T16:18:49;20.70;98.90
21551;DHT22;10936;49.836;7.078;2022-09-17T16:21:17;20.70;98.90
21551;DHT22;10936;49.836;7.078;2022-09-17T16:23:43;20.70;98.90
21551;DHT22;10936;49.836;7.078;2022-09-17T16:26:20;20.70;98.90
21551;DHT22;10936;49.836;7.078;2022-09-17T16:28:50;20.70;98.90
21551;DHT22;10936;49.836;7.078;2022-09-17T16:31:18;20.70;98.90
21551;DHT22;10936;49.836;7.078;2022-09-17T16:33:44;20.70;98.90
21551;DHT22;10936;49.836;7.078;2022-09-17T16:36:09;20.70;98.90
21551;DHT22;10936;49.836;7.078;2022-09-17T16:38:35;20.70;98.90
21551;DHT22;10936;49.836;7.078;2022-09-17T16:41:04;20.60;98.80
21551;DHT22;10936;49.836;7.078;2022-09-17T16:43:30;20.60;99.30
21551;DHT22;10936;49.836;7.078;2022-09-17T16:46:08;20.50;99.30
21551;DHT22;10936;49.836;7.078;2022-09-17T16:48:35;20.50;99.30
21551;DHT22;10936;49.836;7.078;2022-09-17T16:51:06;20.60;99.30
21551;DHT22;10936;49.836;7.078;2022-09-17T16:53:32;20.60;99.20
21551;DHT22;10936;49.836;7.078;2022-09-17T16:55:59;20.60;99.30
21551;DHT22;10936;49.836;7.078;2022-09-17T16:58:24;20.60;99.20
21551;DHT22;10936;49.836;7.078;2022-09-17T17:00:50;20.50;99.40
21551;DHT22;10936;49.836;7.078;2022-09-17T17:03:17;20.50;99.90
21551;DHT22;10936;49.836;7.078;2022-09-17T17:05:43;20.50;99.70
21551;DHT22;10936;49.836;7.078;2022-09-17T17:08:09;20.50;99.50
21551;DHT22;10936;49.836;7.078;2022-09-17T17:10:36;20.50;99.40
21551;DHT22;10936;49.836;7.078;2022-09-17T17:13:02;20.50;99.40
21551;DHT22;10936;49.836;7.078;2022-09-17T17:15:28;20.50;99.30
21551;DHT22;10936;49.836;7.078;2022-09-17T17:17:54;20.40;99.40
21551;DHT22;10936;49.836;7.078;2022-09-17T17:20:20;20.40;99.40
21551;DHT22;10936;49.836;7.078;2022-09-17T17:22:46;20.50;99.50
21551;DHT22;10936;49.836;7.078;2022-09-17T17:25:13;20.50;99.60
21551;DHT22;10936;49.836;7.078;2022-09-17T17:27:39;20.50;99.40
21551;DHT22;10936;49.836;7.078;2022-09-17T17:30:07;20.50;99.40
21551;DHT22;10936;49.836;7.078;2022-09-17T17:32:34;20.50;99.50
21551;DHT22;10936;49.836;7.078;2022-09-17T17:35:01;20.40;99.40
21551;DHT22;10936;49.836;7.078;2022-09-17T17:37:27;20.40;99.40
21551;DHT22;10936;49.836;7.078;2022-09-17T17:39:53;20.40;99.50
21551;DHT22;10936;49.836;7.078;2022-09-17T17:42:19;20.40;99.50
21551;DHT22;10936;49.836;7.078;2022-09-17T17:44:45;20.30;99.60
21551;DHT22;10936;49.836;7.078;2022-09-17T17:47:12;20.30;99.80
21551;DHT22;10936;49.836;7.078;2022-09-17T17:49:38;20.30;99.80
21551;DHT22;10936;49.836;7.078;2022-09-17T17:52:04;20.30;99.70
21551;DHT22;10936;49.836;7.078;2022-09-17T17:54:29;20.30;99.70
21551;DHT22;10936;49.836;7.078;2022-09-17T17:56:55;20.40;99.70
21551;DHT22;10936;49.836;7.078;2022-09-17T17:59:21;20.40;99.60
21551;DHT22;10936;49.836;7.078;2022-09-17T18:01:47;20.30;99.60
21551;DHT22;10936;49.836;7.078;2022-09-17T18:04:12;20.30;99.60
21551;DHT22;10936;49.836;7.078;2022-09-17T18:06:38;20.30;99.80
21551;DHT22;10936;49.836;7.078;2022-09-17T18:09:04;20.40;99.70
21551;DHT22;10936;49.836;7.078;2022-09-17T18:11:31;20.30;99.60
21551;DHT22;10936;49.836;7.078;2022-09-17T18:13:58;20.30;99.90
21551;DHT22;10936;49.836;7.078;2022-09-17T18:16:25;20.20;99.90
21551;DHT22;10936;49.836;7.078;2022-09-17T18:18:51;20.20;99.90
21551;DHT22;10936;49.836;7.078;2022-09-17T18:21:19;20.20;99.90
21551;DHT22;10936;49.836;7.078;2022-09-17T18:23:46;20.10;99.90
21551;DHT22;10936;49.836;7.078;2022-09-17T18:26:16;20.10;99.90
21551;DHT22;10936;49.836;7.078;2022-09-17T18:28:43;20.10;99.90
21551;DHT22;10936;49.836;7.078;2022-09-17T18:33:46;20.10;99.90
21551;DHT22;10936;49.836;7.078;2022-09-17T18:36:11;20.00;99.90
21551;DHT22;10936;49.836;7.078;2022-09-17T18:38:37;20.00;99.90
21551;DHT22;10936;49.836;7.078;2022-09-17T18:41:08;20.00;99.90
21551;DHT22;10936;49.836;7.078;2022-09-17T18:43:35;20.00;99.80
21551;DHT22;10936;49.836;7.078;2022-09-17T18:46:01;20.00;99.70
21551;DHT22;10936;49.836;7.078;2022-09-17T18:48:28;19.90;99.80
21551;DHT22;10936;49.836;7.078;2022-09-17T18:50:59;20.00;99.80
21551;DHT22;10936;49.836;7.078;2022-09-17T18:53:25;20.00;99.80
21551;DHT22;10936;49.836;7.078;2022-09-17T18:55:53;20.00;99.90
21551;DHT22;10936;49.836;7.078;2022-09-17T18:58:19;19.90;99.60
21551;DHT22;10936;49.836;7.078;2022-09-17T19:00:45;19.90;99.60